Impacts TAF Board INFO
FOR SITUATIONAL AWARENESS. NOT TO BE USED FOR FLIGHT PLANNING PURPOSES.
IDs:

KDTW - Detroit Metro/Wayne, MI, US

Issued at 0522 UTC 20 Jan 2018
Updated at 0523 UTC 20 Jan 2018
Potential Impact None Slight Moderate High
Time<<20/18Z 20/19Z 20/20Z 20/21Z 20/22Z 20/23Z 21/00Z 21/01Z 21/02Z 21/03Z 21/04Z 21/05Z 21/06Z>>
Type PRVL PRVL PRVL PRVL PRVL PRVL PRVL PRVL PRVL PRVL PRVL PRVL PRVL
VIS >6 >6 >6 >6 >6 5 5 5 5 5 5 5 5
CIG 25 25 25 25 25 20 20 20 20 20 20 20 20
Cover BKN BKN BKN BKN BKN OVC OVC OVC OVC OVC OVC OVC OVC
FltCat MVFR MVFR MVFR MVFR MVFR MVFR MVFR MVFR MVFR MVFR MVFR MVFR MVFR
WX -- -- -- -- -- BR BR BR BR BR BR BR BR
WDir 230 230 230 230 230 240 240 240 240 240 240 240 240
WSpd 10 10 10 10 10 7 7 7 7 7 7 7 7
WGst 18 18 18 18 18 -- -- -- -- -- -- -- --

Raw TAF
KDTW 200522Z 2006/2112 22015G25KT P6SM BKN200
  FM201000 22010KT 3SM HZ BKN020
  FM201600 23010G18KT P6SM BKN025
  FM202300 24007KT 5SM BR OVC020


METAR Board
Radar Display
Forecast Discussion

FOR SITUATIONAL AWARENESS. NOT TO BE USED FOR FLIGHT PLANNING PURPOSES.